sensor_id;sensor_type;location;lat;lon;timestamp;P1;durP1;ratioP1;P2;durP2;ratioP2
18046;SDS011;9148;51.454;13.862;2023-04-12T00:01:08;1.77;;;0.90;;
18046;SDS011;9148;51.454;13.862;2023-04-12T00:03:34;1.20;;;0.97;;
18046;SDS011;9148;51.454;13.862;2023-04-12T00:06:00;1.07;;;1.07;;
18046;SDS011;9148;51.454;13.862;2023-04-12T00:08:27;1.07;;;0.97;;
18046;SDS011;9148;51.454;13.862;2023-04-12T00:10:57;2.40;;;1.40;;
18046;SDS011;9148;51.454;13.862;2023-04-12T00:13:27;1.47;;;1.07;;
18046;SDS011;9148;51.454;13.862;2023-04-12T00:15:53;1.13;;;1.03;;
18046;SDS011;9148;51.454;13.862;2023-04-12T00:18:19;1.23;;;0.80;;
18046;SDS011;9148;51.454;13.862;2023-04-12T00:20:48;1.13;;;0.93;;
18046;SDS011;9148;51.454;13.862;2023-04-12T00:23:19;1.77;;;0.73;;
18046;SDS011;9148;51.454;13.862;2023-04-12T00:25:44;1.30;;;1.07;;
18046;SDS011;9148;51.454;13.862;2023-04-12T00:28:10;1.63;;;1.53;;
18046;SDS011;9148;51.454;13.862;2023-04-12T00:30:36;2.10;;;1.30;;
18046;SDS011;9148;51.454;13.862;2023-04-12T00:33:01;3.27;;;0.90;;
18046;SDS011;9148;51.454;13.862;2023-04-12T00:35:27;1.30;;;1.20;;
18046;SDS011;9148;51.454;13.862;2023-04-12T00:37:53;1.60;;;1.17;;
18046;SDS011;9148;51.454;13.862;2023-04-12T00:40:18;1.13;;;0.77;;
18046;SDS011;9148;51.454;13.862;2023-04-12T00:42:45;1.03;;;0.90;;
18046;SDS011;9148;51.454;13.862;2023-04-12T00:45:10;1.20;;;1.10;;
18046;SDS011;9148;51.454;13.862;2023-04-12T00:47:36;2.97;;;1.60;;
18046;SDS011;9148;51.454;13.862;2023-04-12T00:50:03;1.13;;;0.93;;
18046;SDS011;9148;51.454;13.862;2023-04-12T00:52:31;2.17;;;1.40;;
18046;SDS011;9148;51.454;13.862;2023-04-12T00:55:07;2.00;;;1.10;;
18046;SDS011;9148;51.454;13.862;2023-04-12T00:57:35;1.83;;;1.13;;
18046;SDS011;9148;51.454;13.862;2023-04-12T01:00:11;2.20;;;1.57;;
18046;SDS011;9148;51.454;13.862;2023-04-12T01:02:39;1.47;;;1.33;;
18046;SDS011;9148;51.454;13.862;2023-04-12T01:05:10;3.03;;;1.20;;
18046;SDS011;9148;51.454;13.862;2023-04-12T01:10:55;1.23;;;1.13;;
18046;SDS011;9148;51.454;13.862;2023-04-12T01:13:48;2.70;;;1.60;;
18046;SDS011;9148;51.454;13.862;2023-04-12T01:18:58;4.00;;;1.77;;
18046;SDS011;9148;51.454;13.862;2023-04-12T01:21:34;2.13;;;1.30;;
18046;SDS011;9148;51.454;13.862;2023-04-12T01:25:13;1.97;;;1.40;;
18046;SDS011;9148;51.454;13.862;2023-04-12T01:27:17;4.67;;;1.93;;
18046;SDS011;9148;51.454;13.862;2023-04-12T01:29:55;4.43;;;2.00;;
18046;SDS011;9148;51.454;13.862;2023-04-12T01:32:22;2.03;;;1.43;;
18046;SDS011;9148;51.454;13.862;2023-04-12T01:34:48;1.40;;;1.30;;
18046;SDS011;9148;51.454;13.862;2023-04-12T01:37:15;1.87;;;1.50;;
18046;SDS011;9148;51.454;13.862;2023-04-12T01:39:43;1.43;;;1.03;;
18046;SDS011;9148;51.454;13.862;2023-04-12T01:42:10;3.07;;;1.47;;
18046;SDS011;9148;51.454;13.862;2023-04-12T01:44:36;1.93;;;1.70;;
18046;SDS011;9148;51.454;13.862;2023-04-12T01:47:01;2.77;;;1.70;;
18046;SDS011;9148;51.454;13.862;2023-04-12T01:49:29;1.50;;;1.37;;
18046;SDS011;9148;51.454;13.862;2023-04-12T01:52:11;2.33;;;1.73;;
18046;SDS011;9148;51.454;13.862;2023-04-12T01:54:47;3.70;;;1.93;;
18046;SDS011;9148;51.454;13.862;2023-04-12T01:57:15;3.23;;;1.67;;
18046;SDS011;9148;51.454;13.862;2023-04-12T01:59:43;3.67;;;2.33;;
18046;SDS011;9148;51.454;13.862;2023-04-12T02:02:10;1.67;;;1.57;;
18046;SDS011;9148;51.454;13.862;2023-04-12T02:04:37;2.60;;;1.07;;
18046;SDS011;9148;51.454;13.862;2023-04-12T02:07:03;1.90;;;1.40;;
18046;SDS011;9148;51.454;13.862;2023-04-12T02:09:29;1.80;;;1.50;;
18046;SDS011;9148;51.454;13.862;2023-04-12T02:12:00;3.70;;;2.30;;
18046;SDS011;9148;51.454;13.862;2023-04-12T02:14:26;3.13;;;2.00;;
18046;SDS011;9148;51.454;13.862;2023-04-12T02:16:51;5.17;;;1.93;;
18046;SDS011;9148;51.454;13.862;2023-04-12T02:19:19;3.73;;;2.00;;
18046;SDS011;9148;51.454;13.862;2023-04-12T02:21:45;3.23;;;2.07;;
18046;SDS011;9148;51.454;13.862;2023-04-12T02:24:11;1.53;;;1.43;;
18046;SDS011;9148;51.454;13.862;2023-04-12T02:26:37;4.00;;;2.03;;
18046;SDS011;9148;51.454;13.862;2023-04-12T02:29:05;3.30;;;1.90;;
18046;SDS011;9148;51.454;13.862;2023-04-12T02:31:33;1.83;;;1.33;;
18046;SDS011;9148;51.454;13.862;2023-04-12T02:34:02;2.20;;;1.10;;
18046;SDS011;9148;51.454;13.862;2023-04-12T02:36:29;2.57;;;1.77;;
18046;SDS011;9148;51.454;13.862;2023-04-12T02:38:55;3.77;;;2.13;;
18046;SDS011;9148;51.454;13.862;2023-04-12T02:41:21;5.27;;;2.33;;
18046;SDS011;9148;51.454;13.862;2023-04-12T02:43:50;4.60;;;1.60;;
18046;SDS011;9148;51.454;13.862;2023-04-12T02:46:18;2.50;;;1.43;;
18046;SDS011;9148;51.454;13.862;2023-04-12T02:48:47;1.27;;;1.17;;
18046;SDS011;9148;51.454;13.862;2023-04-12T02:51:13;2.33;;;1.47;;
18046;SDS011;9148;51.454;13.862;2023-04-12T02:53:39;5.97;;;2.13;;
18046;SDS011;9148;51.454;13.862;2023-04-12T02:56:05;2.83;;;1.27;;
18046;SDS011;9148;51.454;13.862;2023-04-12T02:58:32;1.73;;;1.50;;
18046;SDS011;9148;51.454;13.862;2023-04-12T03:01:00;3.10;;;1.70;;
18046;SDS011;9148;51.454;13.862;2023-04-12T03:03:31;3.93;;;1.63;;
18046;SDS011;9148;51.454;13.862;2023-04-12T03:06:00;3.20;;;1.83;;
18046;SDS011;9148;51.454;13.862;2023-04-12T03:08:25;2.17;;;1.60;;
18046;SDS011;9148;51.454;13.862;2023-04-12T03:10:51;3.57;;;2.50;;
18046;SDS011;9148;51.454;13.862;2023-04-12T03:13:17;3.67;;;1.57;;
18046;SDS011;9148;51.454;13.862;2023-04-12T03:15:42;1.60;;;1.43;;
18046;SDS011;9148;51.454;13.862;2023-04-12T03:18:10;1.93;;;1.40;;
18046;SDS011;9148;51.454;13.862;2023-04-12T03:20:36;3.40;;;1.93;;
18046;SDS011;9148;51.454;13.862;2023-04-12T03:23:03;3.93;;;2.03;;
18046;SDS011;9148;51.454;13.862;2023-04-12T03:25:29;2.23;;;1.57;;
18046;SDS011;9148;51.454;13.862;2023-04-12T03:27:55;2.57;;;1.43;;
18046;SDS011;9148;51.454;13.862;2023-04-12T03:30:20;2.77;;;2.23;;
18046;SDS011;9148;51.454;13.862;2023-04-12T03:32:46;3.00;;;1.53;;
18046;SDS011;9148;51.454;13.862;2023-04-12T03:35:12;2.03;;;1.63;;
18046;SDS011;9148;51.454;13.862;2023-04-12T03:37:39;2.07;;;1.87;;
18046;SDS011;9148;51.454;13.862;2023-04-12T03:40:07;1.83;;;1.57;;
18046;SDS011;9148;51.454;13.862;2023-04-12T03:42:33;2.53;;;1.93;;
18046;SDS011;9148;51.454;13.862;2023-04-12T03:45:00;1.63;;;1.17;;
18046;SDS011;9148;51.454;13.862;2023-04-12T03:47:26;2.80;;;2.00;;
18046;SDS011;9148;51.454;13.862;2023-04-12T03:49:55;2.60;;;2.40;;
18046;SDS011;9148;51.454;13.862;2023-04-12T03:52:27;5.97;;;2.30;;
18046;SDS011;9148;51.454;13.862;2023-04-12T03:54:52;2.33;;;2.00;;
18046;SDS011;9148;51.454;13.862;2023-04-12T03:57:18;3.03;;;2.10;;
18046;SDS011;9148;51.454;13.862;2023-04-12T03:59:43;2.87;;;2.10;;
18046;SDS011;9148;51.454;13.862;2023-04-12T04:02:09;3.20;;;1.90;;
18046;SDS011;9148;51.454;13.862;2023-04-12T04:04:35;4.17;;;2.70;;
18046;SDS011;9148;51.454;13.862;2023-04-12T04:07:02;2.80;;;1.83;;
18046;SDS011;9148;51.454;13.862;2023-04-12T04:09:27;2.37;;;1.80;;
18046;SDS011;9148;51.454;13.862;2023-04-12T04:11:53;3.87;;;2.00;;
18046;SDS011;9148;51.454;13.862;2023-04-12T04:14:19;4.00;;;2.70;;
18046;SDS011;9148;51.454;13.862;2023-04-12T04:16:45;5.13;;;2.23;;
18046;SDS011;9148;51.454;13.862;2023-04-12T04:19:11;4.27;;;2.63;;
18046;SDS011;9148;51.454;13.862;2023-04-12T04:21:36;2.60;;;1.70;;
18046;SDS011;9148;51.454;13.862;2023-04-12T04:24:04;4.30;;;2.27;;
18046;SDS011;9148;51.454;13.862;2023-04-12T04:26:30;3.50;;;2.50;;
18046;SDS011;9148;51.454;13.862;2023-04-12T04:28:57;2.50;;;1.93;;
18046;SDS011;9148;51.454;13.862;2023-04-12T04:31:27;3.43;;;2.60;;
18046;SDS011;9148;51.454;13.862;2023-04-12T04:34:00;5.47;;;2.27;;
18046;SDS011;9148;51.454;13.862;2023-04-12T04:36:31;1.80;;;1.30;;
18046;SDS011;9148;51.454;13.862;2023-04-12T04:38:59;4.37;;;2.57;;
18046;SDS011;9148;51.454;13.862;2023-04-12T04:41:26;4.23;;;2.30;;
18046;SDS011;9148;51.454;13.862;2023-04-12T04:43:51;5.87;;;2.93;;
18046;SDS011;9148;51.454;13.862;2023-04-12T04:46:18;4.37;;;2.90;;
18046;SDS011;9148;51.454;13.862;2023-04-12T04:48:56;4.33;;;2.23;;
18046;SDS011;9148;51.454;13.862;2023-04-12T04:51:22;7.33;;;2.70;;
18046;SDS011;9148;51.454;13.862;2023-04-12T04:53:48;4.37;;;3.13;;
18046;SDS011;9148;51.454;13.862;2023-04-12T04:56:14;5.53;;;4.40;;
18046;SDS011;9148;51.454;13.862;2023-04-12T04:58:40;6.43;;;4.97;;
18046;SDS011;9148;51.454;13.862;2023-04-12T05:01:06;3.73;;;3.13;;
18046;SDS011;9148;51.454;13.862;2023-04-12T05:03:31;5.40;;;3.83;;
18046;SDS011;9148;51.454;13.862;2023-04-12T05:05:58;6.60;;;4.13;;
18046;SDS011;9148;51.454;13.862;2023-04-12T05:08:25;9.83;;;5.03;;
18046;SDS011;9148;51.454;13.862;2023-04-12T05:10:53;5.93;;;3.63;;
18046;SDS011;9148;51.454;13.862;2023-04-12T05:13:20;5.87;;;3.83;;
18046;SDS011;9148;51.454;13.862;2023-04-12T05:15:46;2.83;;;2.50;;
18046;SDS011;9148;51.454;13.862;2023-04-12T05:18:12;7.13;;;4.23;;
18046;SDS011;9148;51.454;13.862;2023-04-12T05:20:39;5.87;;;3.53;;
18046;SDS011;9148;51.454;13.862;2023-04-12T05:23:04;2.97;;;2.37;;
18046;SDS011;9148;51.454;13.862;2023-04-12T05:25:30;3.03;;;2.83;;
18046;SDS011;9148;51.454;13.862;2023-04-12T05:27:57;2.87;;;2.13;;
18046;SDS011;9148;51.454;13.862;2023-04-12T05:30:22;4.97;;;2.40;;
18046;SDS011;9148;51.454;13.862;2023-04-12T05:32:48;6.00;;;1.60;;
18046;SDS011;9148;51.454;13.862;2023-04-12T05:35:14;3.80;;;1.90;;
18046;SDS011;9148;51.454;13.862;2023-04-12T05:37:40;3.17;;;1.73;;
18046;SDS011;9148;51.454;13.862;2023-04-12T05:40:06;2.63;;;1.67;;
18046;SDS011;9148;51.454;13.862;2023-04-12T05:42:33;1.73;;;1.63;;
18046;SDS011;9148;51.454;13.862;2023-04-12T05:45:03;2.00;;;1.70;;
18046;SDS011;9148;51.454;13.862;2023-04-12T05:47:30;2.27;;;1.30;;
18046;SDS011;9148;51.454;13.862;2023-04-12T05:49:55;3.10;;;1.60;;
18046;SDS011;9148;51.454;13.862;2023-04-12T05:52:21;4.23;;;1.47;;
18046;SDS011;9148;51.454;13.862;2023-04-12T05:54:47;1.60;;;1.50;;
18046;SDS011;9148;51.454;13.862;2023-04-12T05:57:12;3.77;;;1.70;;
18046;SDS011;9148;51.454;13.862;2023-04-12T05:59:39;1.53;;;1.43;;
18046;SDS011;9148;51.454;13.862;2023-04-12T06:02:05;2.73;;;1.40;;
18046;SDS011;9148;51.454;13.862;2023-04-12T06:04:31;2.93;;;1.30;;
18046;SDS011;9148;51.454;13.862;2023-04-12T06:06:57;1.57;;;1.47;;
18046;SDS011;9148;51.454;13.862;2023-04-12T06:09:23;9.53;;;2.97;;
18046;SDS011;9148;51.454;13.862;2023-04-12T06:11:48;1.87;;;1.67;;
18046;SDS011;9148;51.454;13.862;2023-04-12T06:14:16;2.50;;;2.27;;
18046;SDS011;9148;51.454;13.862;2023-04-12T06:16:41;6.23;;;3.83;;
18046;SDS011;9148;51.454;13.862;2023-04-12T06:19:10;4.77;;;2.93;;
18046;SDS011;9148;51.454;13.862;2023-04-12T06:21:36;6.50;;;3.00;;
18046;SDS011;9148;51.454;13.862;2023-04-12T06:24:01;5.67;;;4.20;;
18046;SDS011;9148;51.454;13.862;2023-04-12T06:26:27;6.90;;;3.47;;
18046;SDS011;9148;51.454;13.862;2023-04-12T06:28:54;4.67;;;2.70;;
18046;SDS011;9148;51.454;13.862;2023-04-12T06:31:20;3.47;;;3.17;;
18046;SDS011;9148;51.454;13.862;2023-04-12T06:33:46;4.47;;;3.27;;
18046;SDS011;9148;51.454;13.862;2023-04-12T06:36:11;2.47;;;2.07;;
18046;SDS011;9148;51.454;13.862;2023-04-12T06:38:39;4.40;;;2.40;;
18046;SDS011;9148;51.454;13.862;2023-04-12T06:41:05;1.53;;;1.23;;
18046;SDS011;9148;51.454;13.862;2023-04-12T06:43:31;2.33;;;1.57;;
18046;SDS011;9148;51.454;13.862;2023-04-12T06:45:56;2.10;;;1.40;;
18046;SDS011;9148;51.454;13.862;2023-04-12T06:48:22;1.57;;;1.33;;
18046;SDS011;9148;51.454;13.862;2023-04-12T06:50:48;4.63;;;1.37;;
18046;SDS011;9148;51.454;13.862;2023-04-12T06:53:13;2.57;;;1.17;;
18046;SDS011;9148;51.454;13.862;2023-04-12T06:55:39;1.33;;;1.17;;
18046;SDS011;9148;51.454;13.862;2023-04-12T06:58:05;1.30;;;0.87;;
18046;SDS011;9148;51.454;13.862;2023-04-12T07:00:31;1.00;;;0.93;;
18046;SDS011;9148;51.454;13.862;2023-04-12T07:02:56;1.83;;;1.27;;
18046;SDS011;9148;51.454;13.862;2023-04-12T07:05:25;0.77;;;0.77;;
18046;SDS011;9148;51.454;13.862;2023-04-12T07:07:50;1.17;;;0.93;;
18046;SDS011;9148;51.454;13.862;2023-04-12T07:10:16;1.20;;;0.60;;
18046;SDS011;9148;51.454;13.862;2023-04-12T07:12:42;1.53;;;0.83;;
18046;SDS011;9148;51.454;13.862;2023-04-12T07:15:08;0.70;;;0.60;;
18046;SDS011;9148;51.454;13.862;2023-04-12T07:17:34;0.70;;;0.60;;
18046;SDS011;9148;51.454;13.862;2023-04-12T07:20:00;0.47;;;0.47;;
18046;SDS011;9148;51.454;13.862;2023-04-12T07:22:26;2.97;;;0.90;;
18046;SDS011;9148;51.454;13.862;2023-04-12T07:24:51;0.50;;;0.50;;
18046;SDS011;9148;51.454;13.862;2023-04-12T07:27:17;1.57;;;0.70;;
18046;SDS011;9148;51.454;13.862;2023-04-12T07:29:43;0.60;;;0.57;;
18046;SDS011;9148;51.454;13.862;2023-04-12T07:32:08;1.17;;;0.57;;
18046;SDS011;9148;51.454;13.862;2023-04-12T07:34:34;0.63;;;0.60;;
18046;SDS011;9148;51.454;13.862;2023-04-12T07:37:01;0.45;;;0.45;;
18046;SDS011;9148;51.454;13.862;2023-04-12T07:39:28;2.05;;;0.85;;
18046;SDS011;9148;51.454;13.862;2023-04-12T07:41:53;0.93;;;0.70;;
18046;SDS011;9148;51.454;13.862;2023-04-12T07:44:19;0.63;;;0.57;;
18046;SDS011;9148;51.454;13.862;2023-04-12T07:46:45;0.85;;;0.82;;
18046;SDS011;9148;51.454;13.862;2023-04-12T07:49:11;0.40;;;0.40;;
18046;SDS011;9148;51.454;13.862;2023-04-12T07:51:37;0.95;;;0.47;;
18046;SDS011;9148;51.454;13.862;2023-04-12T07:54:02;0.30;;;0.30;;
18046;SDS011;9148;51.454;13.862;2023-04-12T07:56:28;0.60;;;0.50;;
18046;SDS011;9148;51.454;13.862;2023-04-12T07:58:54;2.97;;;0.45;;
18046;SDS011;9148;51.454;13.862;2023-04-12T08:01:20;0.82;;;0.60;;
18046;SDS011;9148;51.454;13.862;2023-04-12T08:03:45;0.93;;;0.40;;
18046;SDS011;9148;51.454;13.862;2023-04-12T08:06:11;1.73;;;0.50;;
18046;SDS011;9148;51.454;13.862;2023-04-12T08:08:37;0.52;;;0.30;;
18046;SDS011;9148;51.454;13.862;2023-04-12T08:11:03;1.17;;;0.47;;
18046;SDS011;9148;51.454;13.862;2023-04-12T08:13:30;0.90;;;0.52;;
18046;SDS011;9148;51.454;13.862;2023-04-12T08:15:57;0.85;;;0.65;;
18046;SDS011;9148;51.454;13.862;2023-04-12T08:18:23;1.00;;;0.40;;
18046;SDS011;9148;51.454;13.862;2023-04-12T08:20:48;0.90;;;0.32;;
18046;SDS011;9148;51.454;13.862;2023-04-12T08:23:14;0.75;;;0.52;;
18046;SDS011;9148;51.454;13.862;2023-04-12T08:25:40;0.88;;;0.40;;
18046;SDS011;9148;51.454;13.862;2023-04-12T08:28:06;0.60;;;0.45;;
18046;SDS011;9148;51.454;13.862;2023-04-12T08:30:32;0.52;;;0.52;;
18046;SDS011;9148;51.454;13.862;2023-04-12T08:32:58;2.17;;;0.43;;
18046;SDS011;9148;51.454;13.862;2023-04-12T08:35:24;0.40;;;0.40;;
18046;SDS011;9148;51.454;13.862;2023-04-12T08:37:50;4.95;;;0.47;;
18046;SDS011;9148;51.454;13.862;2023-04-12T08:40:16;2.88;;;0.95;;
18046;SDS011;9148;51.454;13.862;2023-04-12T08:42:42;1.00;;;0.75;;
18046;SDS011;9148;51.454;13.862;2023-04-12T08:45:08;3.75;;;0.88;;
18046;SDS011;9148;51.454;13.862;2023-04-12T08:47:39;0.77;;;0.63;;
18046;SDS011;9148;51.454;13.862;2023-04-12T08:50:07;1.33;;;0.68;;
18046;SDS011;9148;51.454;13.862;2023-04-12T08:52:37;2.83;;;1.05;;
18046;SDS011;9148;51.454;13.862;2023-04-12T08:55:04;1.65;;;0.80;;
18046;SDS011;9148;51.454;13.862;2023-04-12T08:57:31;1.65;;;0.38;;
18046;SDS011;9148;51.454;13.862;2023-04-12T08:59:58;0.40;;;0.40;;
18046;SDS011;9148;51.454;13.862;2023-04-12T09:02:26;0.20;;;0.20;;
18046;SDS011;9148;51.454;13.862;2023-04-12T09:04:52;0.93;;;0.50;;
18046;SDS011;9148;51.454;13.862;2023-04-12T09:07:20;0.30;;;0.30;;
18046;SDS011;9148;51.454;13.862;2023-04-12T09:09:47;3.17;;;0.50;;
18046;SDS011;9148;51.454;13.862;2023-04-12T09:12:14;1.30;;;0.60;;
18046;SDS011;9148;51.454;13.862;2023-04-12T09:14:40;1.00;;;0.30;;
18046;SDS011;9148;51.454;13.862;2023-04-12T09:17:22;0.73;;;0.43;;
18046;SDS011;9148;51.454;13.862;2023-04-12T09:19:50;1.75;;;1.17;;
18046;SDS011;9148;51.454;13.862;2023-04-12T09:22:16;1.58;;;0.20;;
18046;SDS011;9148;51.454;13.862;2023-04-12T09:24:45;0.30;;;0.30;;
18046;SDS011;9148;51.454;13.862;2023-04-12T09:27:17;2.78;;;1.13;;
18046;SDS011;9148;51.454;13.862;2023-04-12T09:29:46;2.38;;;0.50;;
18046;SDS011;9148;51.454;13.862;2023-04-12T09:32:15;0.75;;;0.70;;
18046;SDS011;9148;51.454;13.862;2023-04-12T09:34:55;7.80;;;0.85;;
18046;SDS011;9148;51.454;13.862;2023-04-12T09:37:25;1.42;;;0.88;;
18046;SDS011;9148;51.454;13.862;2023-04-12T09:40:03;1.98;;;0.60;;
18046;SDS011;9148;51.454;13.862;2023-04-12T09:42:33;3.65;;;0.28;;
18046;SDS011;9148;51.454;13.862;2023-04-12T09:45:00;0.80;;;0.70;;
18046;SDS011;9148;51.454;13.862;2023-04-12T09:47:45;0.82;;;0.30;;
18046;SDS011;9148;51.454;13.862;2023-04-12T09:50:18;1.13;;;0.93;;
18046;SDS011;9148;51.454;13.862;2023-04-12T09:52:57;0.57;;;0.50;;
18046;SDS011;9148;51.454;13.862;2023-04-12T09:55:26;0.70;;;0.50;;
18046;SDS011;9148;51.454;13.862;2023-04-12T09:57:56;1.13;;;0.47;;
18046;SDS011;9148;51.454;13.862;2023-04-12T10:00:27;1.33;;;0.60;;
18046;SDS011;9148;51.454;13.862;2023-04-12T10:02:55;1.05;;;0.60;;
18046;SDS011;9148;51.454;13.862;2023-04-12T10:05:22;0.77;;;0.25;;
18046;SDS011;9148;51.454;13.862;2023-04-12T10:07:49;0.65;;;0.65;;
18046;SDS011;9148;51.454;13.862;2023-04-12T10:10:16;1.00;;;0.57;;
18046;SDS011;9148;51.454;13.862;2023-04-12T10:12:55;1.25;;;0.57;;
18046;SDS011;9148;51.454;13.862;2023-04-12T10:15:21;0.65;;;0.32;;
18046;SDS011;9148;51.454;13.862;2023-04-12T10:17:52;2.03;;;0.70;;
18046;SDS011;9148;51.454;13.862;2023-04-12T10:20:19;1.50;;;0.98;;
18046;SDS011;9148;51.454;13.862;2023-04-12T10:22:49;1.63;;;0.70;;
18046;SDS011;9148;51.454;13.862;2023-04-12T10:25:22;0.47;;;0.47;;
18046;SDS011;9148;51.454;13.862;2023-04-12T10:27:50;1.98;;;0.52;;
18046;SDS011;9148;51.454;13.862;2023-04-12T10:30:26;3.90;;;0.95;;
18046;SDS011;9148;51.454;13.862;2023-04-12T10:35:29;1.13;;;0.50;;
18046;SDS011;9148;51.454;13.862;2023-04-12T10:38:13;1.17;;;0.50;;
18046;SDS011;9148;51.454;13.862;2023-04-12T10:43:35;1.38;;;0.75;;
18046;SDS011;9148;51.454;13.862;2023-04-12T10:46:02;1.15;;;1.02;;
18046;SDS011;9148;51.454;13.862;2023-04-12T10:51:19;0.98;;;0.40;;
18046;SDS011;9148;51.454;13.862;2023-04-12T10:56:39;0.38;;;0.32;;
18046;SDS011;9148;51.454;13.862;2023-04-12T10:59:07;2.63;;;0.57;;
18046;SDS011;9148;51.454;13.862;2023-04-12T11:01:37;1.33;;;0.73;;
18046;SDS011;9148;51.454;13.862;2023-04-12T11:04:07;1.77;;;0.73;;
18046;SDS011;9148;51.454;13.862;2023-04-12T11:19:42;2.38;;;0.65;;
18046;SDS011;9148;51.454;13.862;2023-04-12T11:22:17;0.95;;;0.68;;
18046;SDS011;9148;51.454;13.862;2023-04-12T11:24:46;1.15;;;0.73;;
18046;SDS011;9148;51.454;13.862;2023-04-12T11:27:14;1.98;;;0.73;;
18046;SDS011;9148;51.454;13.862;2023-04-12T11:29:40;5.53;;;0.40;;
18046;SDS011;9148;51.454;13.862;2023-04-12T11:32:09;0.20;;;0.20;;
18046;SDS011;9148;51.454;13.862;2023-04-12T11:34:40;0.60;;;0.40;;
18046;SDS011;9148;51.454;13.862;2023-04-12T11:37:10;1.20;;;1.00;;
18046;SDS011;9148;51.454;13.862;2023-04-12T11:39:39;1.85;;;0.60;;
18046;SDS011;9148;51.454;13.862;2023-04-12T11:42:17;4.00;;;0.55;;
18046;SDS011;9148;51.454;13.862;2023-04-12T11:44:47;0.98;;;0.60;;
18046;SDS011;9148;51.454;13.862;2023-04-12T11:47:19;0.60;;;0.50;;
18046;SDS011;9148;51.454;13.862;2023-04-12T11:49:51;0.70;;;0.50;;
18046;SDS011;9148;51.454;13.862;2023-04-12T11:52:20;1.60;;;0.80;;
18046;SDS011;9148;51.454;13.862;2023-04-12T11:54:53;0.40;;;0.40;;
18046;SDS011;9148;51.454;13.862;2023-04-12T11:57:22;2.47;;;0.65;;
18046;SDS011;9148;51.454;13.862;2023-04-12T11:59:48;1.50;;;0.73;;
18046;SDS011;9148;51.454;13.862;2023-04-12T12:02:15;0.88;;;0.52;;
18046;SDS011;9148;51.454;13.862;2023-04-12T12:04:45;0.88;;;0.77;;
18046;SDS011;9148;51.454;13.862;2023-04-12T12:07:13;3.30;;;0.50;;
18046;SDS011;9148;51.454;13.862;2023-04-12T12:09:43;2.38;;;0.63;;
18046;SDS011;9148;51.454;13.862;2023-04-12T12:12:10;0.38;;;0.38;;
18046;SDS011;9148;51.454;13.862;2023-04-12T12:14:37;1.42;;;0.80;;
18046;SDS011;9148;51.454;13.862;2023-04-12T12:17:09;0.45;;;0.40;;
18046;SDS011;9148;51.454;13.862;2023-04-12T12:19:41;1.40;;;0.57;;
18046;SDS011;9148;51.454;13.862;2023-04-12T12:22:12;0.93;;;0.30;;
18046;SDS011;9148;51.454;13.862;2023-04-12T12:24:49;3.78;;;1.30;;
18046;SDS011;9148;51.454;13.862;2023-04-12T12:27:23;0.80;;;0.68;;
18046;SDS011;9148;51.454;13.862;2023-04-12T12:29:59;1.52;;;0.45;;
18046;SDS011;9148;51.454;13.862;2023-04-12T12:32:31;1.92;;;0.50;;
18046;SDS011;9148;51.454;13.862;2023-04-12T12:34:58;0.60;;;0.40;;
18046;SDS011;9148;51.454;13.862;2023-04-12T12:37:25;1.05;;;0.50;;
18046;SDS011;9148;51.454;13.862;2023-04-12T12:40:05;3.33;;;0.90;;
18046;SDS011;9148;51.454;13.862;2023-04-12T12:42:42;3.47;;;0.40;;
18046;SDS011;9148;51.454;13.862;2023-04-12T12:45:16;1.45;;;0.68;;
18046;SDS011;9148;51.454;13.862;2023-04-12T12:47:57;2.80;;;0.90;;
18046;SDS011;9148;51.454;13.862;2023-04-12T12:50:29;1.25;;;0.80;;
18046;SDS011;9148;51.454;13.862;2023-04-12T12:52:58;1.58;;;0.63;;
18046;SDS011;9148;51.454;13.862;2023-04-12T12:55:25;2.88;;;0.93;;
18046;SDS011;9148;51.454;13.862;2023-04-12T12:57:52;1.30;;;0.73;;
18046;SDS011;9148;51.454;13.862;2023-04-12T13:00:20;1.33;;;0.40;;
18046;SDS011;9148;51.454;13.862;2023-04-12T13:02:47;1.10;;;0.77;;
18046;SDS011;9148;51.454;13.862;2023-04-12T13:05:14;1.45;;;0.82;;
18046;SDS011;9148;51.454;13.862;2023-04-12T13:07:40;0.73;;;0.40;;
18046;SDS011;9148;51.454;13.862;2023-04-12T13:10:06;1.17;;;0.85;;
18046;SDS011;9148;51.454;13.862;2023-04-12T13:12:33;2.28;;;1.15;;
18046;SDS011;9148;51.454;13.862;2023-04-12T13:14:59;0.90;;;0.82;;
18046;SDS011;9148;51.454;13.862;2023-04-12T13:17:25;2.90;;;1.10;;
18046;SDS011;9148;51.454;13.862;2023-04-12T13:19:52;2.90;;;1.25;;
18046;SDS011;9148;51.454;13.862;2023-04-12T13:22:18;1.25;;;0.75;;
18046;SDS011;9148;51.454;13.862;2023-04-12T13:24:44;1.70;;;0.90;;
18046;SDS011;9148;51.454;13.862;2023-04-12T13:27:10;5.93;;;0.90;;
18046;SDS011;9148;51.454;13.862;2023-04-12T13:29:37;2.20;;;1.25;;
18046;SDS011;9148;51.454;13.862;2023-04-12T13:32:03;1.33;;;1.10;;
18046;SDS011;9148;51.454;13.862;2023-04-12T13:34:29;0.88;;;0.60;;
18046;SDS011;9148;51.454;13.862;2023-04-12T13:36:56;5.20;;;0.82;;
18046;SDS011;9148;51.454;13.862;2023-04-12T13:39:22;1.52;;;1.42;;
18046;SDS011;9148;51.454;13.862;2023-04-12T13:41:47;1.13;;;1.02;;
18046;SDS011;9148;51.454;13.862;2023-04-12T13:44:13;0.77;;;0.77;;
18046;SDS011;9148;51.454;13.862;2023-04-12T13:46:39;1.98;;;0.75;;
18046;SDS011;9148;51.454;13.862;2023-04-12T13:49:05;0.70;;;0.70;;
18046;SDS011;9148;51.454;13.862;2023-04-12T13:51:31;1.58;;;0.85;;
18046;SDS011;9148;51.454;13.862;2023-04-12T13:53:57;1.15;;;1.05;;
18046;SDS011;9148;51.454;13.862;2023-04-12T13:56:23;3.30;;;1.15;;
18046;SDS011;9148;51.454;13.862;2023-04-12T13:58:49;0.88;;;0.77;;
18046;SDS011;9148;51.454;13.862;2023-04-12T14:01:15;1.08;;;0.80;;
18046;SDS011;9148;51.454;13.862;2023-04-12T14:03:41;0.98;;;0.85;;
18046;SDS011;9148;51.454;13.862;2023-04-12T14:06:07;0.60;;;0.60;;
18046;SDS011;9148;51.454;13.862;2023-04-12T14:08:33;5.35;;;0.80;;
18046;SDS011;9148;51.454;13.862;2023-04-12T14:11:01;1.25;;;0.60;;
18046;SDS011;9148;51.454;13.862;2023-04-12T14:13:27;1.08;;;0.75;;
18046;SDS011;9148;51.454;13.862;2023-04-12T14:15:53;0.82;;;0.70;;
18046;SDS011;9148;51.454;13.862;2023-04-12T14:18:20;1.27;;;1.00;;
18046;SDS011;9148;51.454;13.862;2023-04-12T14:20:51;0.38;;;0.38;;
18046;SDS011;9148;51.454;13.862;2023-04-12T14:23:18;6.13;;;0.93;;
18046;SDS011;9148;51.454;13.862;2023-04-12T14:25:49;0.70;;;0.60;;
18046;SDS011;9148;51.454;13.862;2023-04-12T14:28:15;0.77;;;0.32;;
18046;SDS011;9148;51.454;13.862;2023-04-12T14:30:41;0.60;;;0.50;;
18046;SDS011;9148;51.454;13.862;2023-04-12T14:33:08;1.48;;;0.47;;
18046;SDS011;9148;51.454;13.862;2023-04-12T14:35:34;1.58;;;0.73;;
18046;SDS011;9148;51.454;13.862;2023-04-12T14:38:00;0.68;;;0.55;;
18046;SDS011;9148;51.454;13.862;2023-04-12T14:40:26;0.75;;;0.60;;
18046;SDS011;9148;51.454;13.862;2023-04-12T14:42:52;0.80;;;0.50;;
18046;SDS011;9148;51.454;13.862;2023-04-12T14:45:17;0.43;;;0.43;;
18046;SDS011;9148;51.454;13.862;2023-04-12T14:47:45;1.75;;;0.60;;
18046;SDS011;9148;51.454;13.862;2023-04-12T14:50:10;2.50;;;0.50;;
18046;SDS011;9148;51.454;13.862;2023-04-12T14:52:36;1.35;;;0.55;;
18046;SDS011;9148;51.454;13.862;2023-04-12T14:55:02;7.25;;;1.20;;
18046;SDS011;9148;51.454;13.862;2023-04-12T14:57:28;0.60;;;0.52;;
18046;SDS011;9148;51.454;13.862;2023-04-12T14:59:54;0.30;;;0.30;;
18046;SDS011;9148;51.454;13.862;2023-04-12T15:02:20;0.40;;;0.32;;
18046;SDS011;9148;51.454;13.862;2023-04-12T15:04:47;3.63;;;0.88;;
18046;SDS011;9148;51.454;13.862;2023-04-12T15:07:13;3.05;;;1.17;;
18046;SDS011;9148;51.454;13.862;2023-04-12T15:09:39;0.82;;;0.55;;
18046;SDS011;9148;51.454;13.862;2023-04-12T15:12:05;0.65;;;0.65;;
18046;SDS011;9148;51.454;13.862;2023-04-12T15:14:31;0.85;;;0.85;;
18046;SDS011;9148;51.454;13.862;2023-04-12T15:16:56;1.05;;;0.60;;
18046;SDS011;9148;51.454;13.862;2023-04-12T15:19:22;1.90;;;1.02;;
18046;SDS011;9148;51.454;13.862;2023-04-12T15:21:51;9.52;;;2.00;;